Time;durP1;ratioP1;P1;durP2;ratioP2;P2;SDS_P1;SDS_P2;PMS_P1;PMS_P2;Temp;Humidity;BMP_temperature;BMP_pressure;BME280_temperature;BME280_humidity;BME280_pressure;Samples;Min_cycle;Max_cycle;Signal;HPM_P1;HPM_P2
2022/08/03 00:00:35;;;;;;;1.65;1.27;;;;;;;22.16;51.69;99982.91;4408505;32;33632;-80
2022/08/03 00:03:03;;;;;;;2.45;1.40;;;;;;;22.07;52.01;99981.88;4388535;32;33022;-81
2022/08/03 00:05:32;;;;;;;1.77;1.42;;;;;;;22.13;51.91;99986.75;4402438;32;32612;-81
2022/08/03 00:08:02;;;;;;;1.55;1.20;;;;;;;22.24;51.52;99983.09;4396424;32;33288;-80
2022/08/03 00:10:31;;;;;;;1.70;1.60;;;;;;;22.34;51.09;99983.97;4402133;32;34209;-81
2022/08/03 00:13:00;;;;;;;11.38;1.50;;;;;;;22.18;51.68;99984.50;4388379;32;34892;-82
2022/08/03 00:15:29;;;;;;;3.22;1.60;;;;;;;21.96;52.27;99990.03;4407806;32;33871;-82
2022/08/03 00:17:57;;;;;;;1.80;1.50;;;;;;;21.97;52.25;99986.34;4394075;32;33774;-81
2022/08/03 00:20:26;;;;;;;1.55;1.20;;;;;;;22.08;51.83;99983.59;4394913;32;33624;-81
2022/08/03 00:22:56;;;;;;;1.55;1.30;;;;;;;22.01;52.31;99987.78;4419884;32;34767;-84
2022/08/03 00:25:25;;;;;;;4.97;1.40;;;;;;;22.02;52.26;99989.50;4395480;32;32198;-83
2022/08/03 00:27:52;;;;;;;1.92;1.42;;;;;;;21.91;52.60;99993.13;4405205;32;92431;-83
2022/08/03 00:30:22;;;;;;;1.90;1.70;;;;;;;21.99;52.28;99989.78;4420444;32;34298;-83
2022/08/03 00:32:55;;;;;;;1.40;1.30;;;;;;;22.01;52.32;99992.31;4439198;32;33539;-82
2022/08/03 00:35:23;;;;;;;2.20;1.65;;;;;;;21.88;52.54;99993.37;4438399;32;33024;-81
2022/08/03 00:38:04;;;;;;;3.33;1.80;;;;;;;21.73;53.24;99995.59;4426848;32;32561;-82
2022/08/03 00:40:32;;;;;;;2.00;1.80;;;;;;;21.91;52.71;99994.97;4439425;32;33267;-83
2022/08/03 00:43:03;;;;;;;1.55;1.45;;;;;;;21.86;52.92;99991.84;4438186;32;33671;-83
2022/08/03 00:45:32;;;;;;;4.82;1.67;;;;;;;21.56;54.07;99992.69;4425580;32;34114;-83
2022/08/03 00:48:02;;;;;;;1.45;1.35;;;;;;;21.41;54.70;99997.50;4418061;32;32652;-84
2022/08/03 00:50:36;;;;;;;1.65;1.55;;;;;;;21.65;53.76;99991.88;4425596;32;33578;-83
2022/08/03 00:53:05;;;;;;;1.75;1.65;;;;;;;21.50;54.26;99994.03;4433164;32;32834;-83
2022/08/03 00:55:35;;;;;;;2.12;1.58;;;;;;;21.58;54.02;99996.06;4425404;32;33041;-82
2022/08/03 00:58:07;;;;;;;2.40;2.20;;;;;;;21.81;53.42;99997.62;4438357;32;32008;-82
2022/08/03 01:00:39;;;;;;;2.87;1.70;;;;;;;21.41;54.87;100000.19;4436418;32;33417;-82
2022/08/03 01:03:15;;;;;;;1.85;1.70;;;;;;;21.44;54.70;99998.09;4425645;32;34060;-82
2022/08/03 01:05:43;;;;;;;2.05;1.52;;;;;;;21.54;54.59;100000.00;4449666;32;33477;-82
2022/08/03 01:08:48;;;;;;;3.22;1.90;;;;;;;21.50;54.73;99999.41;4451058;32;33373;-81
2022/08/03 01:11:32;;;;;;;1.90;1.77;;;;;;;21.51;54.86;99997.56;4451777;32;34724;-82
2022/08/03 01:14:12;;;;;;;1.95;1.70;;;;;;;21.40;55.11;99998.50;4438068;32;34138;-81
2022/08/03 01:16:59;;;;;;;2.35;2.15;;;;;;;21.47;54.69;99999.69;4437773;32;33307;-81
2022/08/03 01:19:39;;;;;;;4.03;2.35;;;;;;;21.44;54.74;99990.06;4418761;32;30836;-81
2022/08/03 01:22:34;;;;;;;2.22;1.90;;;;;;;21.47;54.65;99999.69;4451708;32;33908;-81
2022/08/03 01:25:11;;;;;;;1.80;1.70;;;;;;;21.44;54.75;100005.31;4434635;32;34464;-82
2022/08/03 01:28:08;;;;;;;1.90;1.77;;;;;;;21.38;55.33;100004.00;4439512;32;33426;-81
2022/08/03 01:30:40;;;;;;;1.62;1.52;;;;;;;21.13;55.75;100002.53;4434109;32;33659;-82
2022/08/03 01:33:14;;;;;;;4.20;2.72;;;;;;;21.14;55.75;100001.56;4407197;32;34401;-81
2022/08/03 01:35:56;;;;;;;2.17;1.98;;;;;;;21.20;55.45;99992.97;4422167;32;33743;-81
2022/08/03 01:38:35;;;;;;;4.05;1.95;;;;;;;20.84;56.65;99999.63;4414719;32;33325;-81
2022/08/03 01:41:06;;;;;;;1.90;1.80;;;;;;;20.95;56.58;100004.06;4415321;32;33268;-81
2022/08/03 01:43:35;;;;;;;2.70;2.42;;;;;;;21.19;55.70;99999.31;4421905;32;33660;-81
2022/08/03 01:46:25;;;;;;;2.00;1.80;;;;;;;21.16;55.87;99999.56;4422423;32;34778;-81
2022/08/03 01:48:54;;;;;;;2.97;2.00;;;;;;;21.20;55.94;99997.50;4401857;32;33024;-81
2022/08/03 01:51:22;;;;;;;2.40;2.20;;;;;;;21.11;56.35;100007.16;4421600;32;33187;-80
2022/08/03 01:53:51;;;;;;;2.35;2.12;;;;;;;20.96;56.55;100003.09;4421970;32;33913;-81
2022/08/03 01:56:19;;;;;;;3.60;1.95;;;;;;;21.02;56.34;100002.56;4421662;32;32332;-81
2022/08/03 01:58:48;;;;;;;4.25;2.20;;;;;;;21.08;56.13;99995.81;4421572;32;34210;-81
2022/08/03 02:01:17;;;;;;;2.55;2.35;;;;;;;20.92;57.03;99993.59;4421587;32;33042;-81
2022/08/03 02:03:46;;;;;;;4.57;2.42;;;;;;;21.13;56.27;100002.53;4421811;32;34166;-81
2022/08/03 02:06:30;;;;;;;3.50;2.25;;;;;;;21.14;56.10;99998.88;4420601;32;33680;-81
2022/08/03 02:09:20;;;;;;;5.53;2.10;;;;;;;21.12;56.33;100005.31;4411316;32;32346;-81
2022/08/03 02:11:50;;;;;;;2.35;2.05;;;;;;;20.90;56.96;100006.31;4420894;32;34626;-81
2022/08/03 02:14:19;;;;;;;3.03;2.37;;;;;;;20.75;57.39;100002.19;4407429;32;33305;-81
2022/08/03 02:16:48;;;;;;;2.78;2.20;;;;;;;20.76;57.42;99993.19;4420727;32;32606;-81
2022/08/03 02:19:16;;;;;;;3.80;2.80;;;;;;;20.93;56.96;100000.66;4421565;32;34386;-81
2022/08/03 02:21:45;;;;;;;2.12;1.85;;;;;;;20.96;56.69;100005.78;4421811;32;34099;-81
2022/08/03 02:24:29;;;;;;;3.50;2.80;;;;;;;20.62;58.03;100008.56;4419270;32;33941;-82
2022/08/03 02:26:59;;;;;;;2.75;2.25;;;;;;;20.59;58.22;100014.19;4421184;32;34648;-82
2022/08/03 02:29:33;;;;;;;3.62;2.17;;;;;;;20.76;57.64;100004.75;4425876;32;33820;-82
2022/08/03 02:32:13;;;;;;;2.58;2.37;;;;;;;20.79;57.49;100009.84;4424840;32;33385;-82
2022/08/03 02:34:44;;;;;;;2.53;2.33;;;;;;;20.66;57.98;99999.31;4432298;32;33631;-82
2022/08/03 02:37:12;;;;;;;3.17;2.80;;;;;;;20.73;57.75;100014.88;4424036;32;33788;-82
2022/08/03 02:39:41;;;;;;;3.45;2.85;;;;;;;20.78;57.64;99999.25;4436068;32;33888;-81
2022/08/03 02:42:10;;;;;;;6.82;3.25;;;;;;;20.71;57.97;100010.50;4447685;32;33380;-81
2022/08/03 02:44:47;;;;;;;2.40;2.20;;;;;;;20.69;58.29;100007.06;4435626;32;34696;-80
2022/08/03 02:47:16;;;;;;;4.95;2.55;;;;;;;20.69;58.14;100004.41;4432186;32;33333;-80
2022/08/03 02:49:46;;;;;;;4.28;2.72;;;;;;;20.77;57.73;100005.59;4423846;32;32432;-80
2022/08/03 02:52:20;;;;;;;6.62;3.00;;;;;;;20.67;58.07;100005.53;4436454;32;32096;-80
2022/08/03 02:54:52;;;;;;;4.55;2.60;;;;;;;20.64;58.18;100014.66;4436601;32;33547;-80
2022/08/03 02:57:20;;;;;;;3.00;2.70;;;;;;;20.65;58.17;100013.69;4435976;32;34522;-80
2022/08/03 02:59:50;;;;;;;3.37;2.55;;;;;;;20.62;58.13;100007.72;4448277;32;33757;-80
2022/08/03 03:02:19;;;;;;;4.47;2.70;;;;;;;20.60;58.24;100013.19;4435279;32;33378;-80
2022/08/03 03:04:49;;;;;;;2.67;2.47;;;;;;;20.59;58.35;100013.34;4436853;32;33559;-82
2022/08/03 03:07:37;;;;;;;3.28;2.70;;;;;;;20.57;58.35;100015.31;4426062;32;33687;-83
2022/08/03 03:10:23;;;;;;;6.82;2.83;;;;;;;20.61;58.17;100009.56;4447275;32;33532;-83
2022/08/03 03:12:54;;;;;;;;;;;;;;;20.58;58.35;100012.47;4421614;32;32296;-81
2022/08/03 03:15:26;;;;;;;2.80;2.53;;;;;;;20.63;58.29;100004.06;4433470;32;32844;-82
2022/08/03 03:17:55;;;;;;;6.50;2.95;;;;;;;20.63;58.16;100009.44;4447951;32;33454;-81
2022/08/03 03:20:23;;;;;;;5.62;2.78;;;;;;;20.49;58.82;100007.03;4436554;32;32449;-82
2022/08/03 03:22:59;;;;;;;4.82;3.90;;;;;;;20.47;59.16;100004.47;4436792;32;33202;-81
2022/08/03 03:25:30;;;;;;;3.10;2.90;;;;;;;20.52;59.00;100014.84;4423844;32;32765;-81
2022/08/03 03:27:59;;;;;;;2.65;2.45;;;;;;;20.48;59.18;100016.91;4422989;32;32682;-82
2022/08/03 03:30:28;;;;;;;3.90;2.95;;;;;;;20.54;58.91;100012.84;4449040;32;34482;-82
2022/08/03 03:32:57;;;;;;;3.30;3.00;;;;;;;20.55;58.84;100012.72;4436633;32;33034;-81
2022/08/03 03:35:26;;;;;;;3.75;3.37;;;;;;;20.62;58.76;100008.56;4436333;32;33957;-81
2022/08/03 03:37:54;;;;;;;2.65;2.45;;;;;;;20.58;59.05;100012.47;4449102;32;33208;-82
2022/08/03 03:40:23;;;;;;;3.28;3.00;;;;;;;20.62;58.95;100008.56;4431490;32;33280;-82
2022/08/03 03:42:52;;;;;;;3.53;3.22;;;;;;;20.44;59.82;100012.72;4436314;32;31795;-82
2022/08/03 03:45:20;;;;;;;6.28;3.30;;;;;;;20.44;59.74;100020.78;4436304;32;32094;-81
2022/08/03 03:47:51;;;;;;;3.05;2.78;;;;;;;20.55;59.45;100022.59;4448487;32;33813;-82
2022/08/03 03:50:19;;;;;;;4.37;3.35;;;;;;;20.45;59.65;100022.47;4436031;32;32738;-82
2022/08/03 03:52:48;;;;;;;4.10;3.58;;;;;;;20.47;59.65;100015.19;4436388;32;33369;-82
2022/08/03 03:55:17;;;;;;;6.20;3.28;;;;;;;20.48;59.55;100010.69;4448640;32;33976;-82
2022/08/03 03:57:46;;;;;;;5.10;3.40;;;;;;;20.50;59.55;100019.44;4423766;32;33909;-82
2022/08/03 04:00:16;;;;;;;3.95;3.20;;;;;;;20.42;59.88;100018.22;4436375;32;32938;-83
2022/08/03 04:02:47;;;;;;;5.25;3.53;;;;;;;20.50;59.83;100020.28;4422902;32;33321;-83
2022/08/03 04:11:17;;;;;;;3.90;3.47;;;;;;;20.79;59.56;100020.59;4421797;32;33750;-82
2022/08/03 04:13:52;;;;;;;7.80;4.65;;;;;;;20.97;59.35;100024.44;4421541;32;32199;-82
2022/08/03 04:16:22;;;;;;;6.18;4.35;;;;;;;20.83;60.15;100022.03;4421736;32;34478;-83
2022/08/03 04:18:54;;;;;;;6.93;4.70;;;;;;;20.92;60.44;100028.47;4427953;32;33586;-83
2022/08/03 04:21:23;;;;;;;6.45;4.30;;;;;;;21.04;nan;100030.16;4420581;32;33155;-84
2022/08/03 04:23:56;;;;;;;6.53;4.40;;;;;;;21.25;59.71;100038.22;4422789;32;33706;-83
2022/08/03 04:26:26;;;;;;;4.70;4.28;;;;;;;21.21;59.41;100042.16;4416757;32;34201;-86
2022/08/03 04:28:55;;;;;;;5.20;4.18;;;;;;;21.35;59.46;100041.88;4412229;32;32877;-86
2022/08/03 04:31:23;;;;;;;4.40;3.90;;;;;;;21.53;59.00;100041.28;4412149;32;33466;-87
2022/08/03 04:33:53;;;;;;;5.37;4.85;;;;;;;21.51;59.37;100038.75;4412193;32;32040;-87
2022/08/03 04:39:13;;;;;;;6.72;4.55;;;;;;;21.68;58.64;100038.13;4425729;32;33599;-87
2022/08/03 04:41:42;;;;;;;7.90;4.40;;;;;;;21.77;58.42;100049.09;4411832;32;33492;-86
2022/08/03 04:44:30;;;;;;;6.50;3.95;;;;;;;21.96;58.06;100051.88;4423513;32;32550;-87
2022/08/03 04:46:59;;;;;;;6.70;4.35;;;;;;;21.85;57.92;100044.75;4423415;32;34277;-88
2022/08/03 04:49:28;;;;;;;6.07;4.45;;;;;;;22.04;57.35;100044.00;4411877;32;33364;-88
2022/08/03 04:51:55;;;;;;;5.28;4.22;;;;;;;22.12;57.37;100051.41;4424087;32;33389;-87
2022/08/03 04:54:23;;;;;;;8.55;4.60;;;;;;;22.07;57.74;100054.47;4424371;32;32784;-88
2022/08/03 04:56:51;;;;;;;4.80;4.37;;;;;;;22.18;57.79;100058.97;4408951;32;32940;-86
2022/08/03 04:59:18;;;;;;;5.95;4.80;;;;;;;22.31;57.33;100067.63;4422966;32;34627;-86
2022/08/03 05:01:46;;;;;;;9.65;5.18;;;;;;;22.86;56.40;100060.00;4423079;32;33416;-86
2022/08/03 05:04:14;;;;;;;6.53;5.12;;;;;;;23.03;56.67;100063.87;4419990;32;33013;-85
2022/08/03 05:06:42;;;;;;;7.37;4.32;;;;;;;23.00;56.89;100069.53;4433377;32;33976;-85
2022/08/03 05:09:15;;;;;;;10.07;4.45;;;;;;;23.15;56.64;100060.06;4417941;32;33749;-86
2022/08/03 05:14:42;;;;;;;5.28;4.45;;;;;;;23.70;55.51;100063.03;4422397;32;32609;-87
2022/08/03 05:17:11;;;;;;;5.72;4.90;;;;;;;23.72;55.99;100061.03;4433985;32;35299;-87
2022/08/03 05:19:40;;;;;;;9.38;5.07;;;;;;;23.87;56.11;100069.50;4434284;32;32816;-86
2022/08/03 05:22:13;;;;;;;5.62;4.65;;;;;;;24.12;55.05;100076.12;4407303;32;32886;-87
2022/08/03 05:24:41;;;;;;;7.85;5.05;;;;;;;24.19;54.75;100077.22;4422917;32;32297;-87
2022/08/03 05:27:16;;;;;;;8.93;4.62;;;;;;;24.22;54.45;100071.53;4422215;32;34844;-87
2022/08/03 05:29:45;;;;;;;6.00;4.87;;;;;;;24.24;54.40;100074.94;4405316;32;32852;-87
2022/08/03 05:32:15;;;;;;;9.85;5.55;;;;;;;24.30;54.92;100072.62;4412988;32;33033;-88
2022/08/03 05:34:45;;;;;;;5.57;4.35;;;;;;;24.26;55.53;100072.94;4410633;32;32786;-88
2022/08/03 05:37:13;;;;;;;8.02;4.35;;;;;;;24.60;55.07;100075.09;4417620;32;32455;-84
2022/08/03 05:39:44;;;;;;;7.22;5.18;;;;;;;24.88;54.64;100077.78;4420469;32;33779;-82
2022/08/03 05:42:15;;;;;;;7.20;4.90;;;;;;;25.11;53.19;100084.44;4404682;32;33788;-82
2022/08/03 05:44:44;;;;;;;7.40;5.30;;;;;;;24.84;52.52;100079.09;4418947;32;33659;-82
2022/08/03 05:47:14;;;;;;;5.47;4.97;;;;;;;25.05;52.51;100074.22;4419011;32;31877;-82
2022/08/03 05:49:43;;;;;;;5.50;4.68;;;;;;;25.48;52.12;100080.72;4416763;32;33896;-82
2022/08/03 05:52:13;;;;;;;5.30;4.80;;;;;;;25.77;52.42;100081.34;4410067;32;33893;-82
2022/08/03 05:54:45;;;;;;;5.70;4.95;;;;;;;25.93;50.60;100079.78;4431327;32;33712;-82
2022/08/03 05:57:27;;;;;;;5.32;4.82;;;;;;;26.14;49.18;100069.41;4416583;32;33984;-83
2022/08/03 05:59:55;;;;;;;4.70;4.30;;;;;;;26.08;49.56;100080.03;4404555;32;33824;-82
2022/08/03 06:02:26;;;;;;;6.20;5.70;;;;;;;26.39;48.98;100083.06;4419278;32;33877;-82
2022/08/03 06:04:54;;;;;;;5.68;5.07;;;;;;;26.20;49.00;100079.56;4405802;32;33951;-82
2022/08/03 06:07:23;;;;;;;6.47;5.75;;;;;;;25.84;49.59;100083.44;4431309;32;33147;-81
2022/08/03 06:09:52;;;;;;;6.40;5.05;;;;;;;26.34;49.54;100086.25;4425325;32;33139;-82
2022/08/03 06:12:48;;;;;;;8.80;5.55;;;;;;;26.67;47.23;100084.56;4417956;32;33497;-82
2022/08/03 06:15:26;;;;;;;9.40;5.28;;;;;;;26.57;47.73;100089.25;4403988;32;32781;-82
2022/08/03 06:17:56;;;;;;;9.10;4.85;;;;;;;26.84;47.97;100090.91;4417716;32;32679;-83
2022/08/03 06:20:29;;;;;;;6.65;5.47;;;;;;;26.68;48.28;100088.13;4402999;32;33178;-83
2022/08/03 06:22:59;;;;;;;4.47;4.07;;;;;;;27.28;45.44;100087.97;4405040;32;32078;-84
2022/08/03 06:25:28;;;;;;;5.57;5.07;;;;;;;27.19;45.50;100086.25;4415595;32;32647;-87
2022/08/03 06:27:58;;;;;;;7.43;4.43;;;;;;;27.45;45.19;100086.97;4416405;32;34874;-86
2022/08/03 06:30:34;;;;;;;6.90;4.43;;;;;;;27.19;45.59;100084.37;4428735;32;34022;-87
2022/08/03 06:33:06;;;;;;;;;;;;;;;27.56;44.71;100083.06;4408812;32;33837;-84
2022/08/03 06:35:35;;;;;;;6.22;4.87;;;;;;;26.84;46.89;100092.75;4407971;32;31967;-85
2022/08/03 06:38:10;;;;;;;6.03;4.78;;;;;;;27.02;46.31;100098.91;4421180;32;33337;-86
2022/08/03 06:40:38;;;;;;;5.78;5.28;;;;;;;27.36;44.83;100101.53;4420804;32;33212;-85
2022/08/03 06:43:07;;;;;;;6.25;5.10;;;;;;;27.41;44.08;100088.31;4422492;32;31550;-84
2022/08/03 06:45:42;;;;;;;5.70;5.10;;;;;;;27.84;43.83;100094.44;4433512;32;33138;-85
2022/08/03 06:48:14;;;;;;;5.80;5.30;;;;;;;27.80;43.20;100099.34;4418406;32;33217;-85
2022/08/03 06:50:44;;;;;;;6.15;5.22;;;;;;;28.02;44.57;100103.25;4420685;32;32919;-85
2022/08/03 06:53:18;;;;;;;7.07;5.47;;;;;;;28.07;43.63;100100.00;4418876;32;32959;-85
2022/08/03 06:55:50;;;;;;;5.35;4.85;;;;;;;28.28;43.18;100108.44;4421210;32;33387;-85
2022/08/03 06:58:23;;;;;;;5.80;4.80;;;;;;;27.90;43.76;100099.16;4421272;32;33545;-85
2022/08/03 07:00:52;;;;;;;5.75;5.15;;;;;;;27.96;43.99;100097.63;4420545;32;34109;-85
2022/08/03 07:03:21;;;;;;;5.32;4.80;;;;;;;28.20;42.21;100099.44;4408095;32;32544;-86
2022/08/03 07:05:51;;;;;;;7.43;5.65;;;;;;;28.42;42.28;100103.34;4433596;32;32505;-84
2022/08/03 07:08:23;;;;;;;6.30;5.70;;;;;;;28.60;42.67;100101.22;4419197;32;33767;-85
2022/08/03 07:11:04;;;;;;;6.07;4.87;;;;;;;28.35;41.48;100097.75;4423327;32;32997;-85
2022/08/03 07:13:32;;;;;;;9.02;5.45;;;;;;;28.80;41.45;100101.63;4405252;32;34127;-85
2022/08/03 07:16:04;;;;;;;6.25;5.60;;;;;;;28.90;40.96;100094.09;4432027;32;34284;-85
2022/08/03 07:18:37;;;;;;;8.50;5.20;;;;;;;28.86;41.12;100091.91;4418922;32;33137;-85
2022/08/03 07:21:06;;;;;;;5.55;4.90;;;;;;;28.76;41.08;100090.28;4433221;32;33695;-85
2022/08/03 07:23:36;;;;;;;8.63;5.75;;;;;;;28.67;41.67;100102.19;4418193;32;32692;-86
2022/08/03 07:26:05;;;;;;;7.35;5.22;;;;;;;29.12;41.70;100094.37;4407289;32;31609;-85
2022/08/03 07:28:34;;;;;;;7.12;5.43;;;;;;;29.45;40.79;100089.53;4419517;32;32683;-86
2022/08/03 07:31:04;;;;;;;6.43;5.53;;;;;;;29.12;40.98;100094.37;4420483;32;33231;-85
2022/08/03 07:33:34;;;;;;;8.45;5.10;;;;;;;29.31;40.48;100096.62;4420245;32;32881;-85
2022/08/03 07:36:05;;;;;;;9.95;5.25;;;;;;;29.25;39.91;100092.75;4416443;32;33207;-85
2022/08/03 07:38:38;;;;;;;5.07;4.57;;;;;;;29.15;40.20;100094.00;4430960;32;34630;-85
2022/08/03 07:41:08;;;;;;;10.60;5.45;;;;;;;29.43;40.42;100097.87;4417041;32;33318;-85
2022/08/03 07:43:38;;;;;;;6.35;5.55;;;;;;;29.30;40.08;100093.03;4430221;32;33883;-85
2022/08/03 07:46:07;;;;;;;6.82;5.43;;;;;;;29.17;42.10;100091.94;4420437;32;32343;-86
2022/08/03 07:48:35;;;;;;;9.32;5.80;;;;;;;29.20;40.18;100100.59;4419199;32;34749;-86
2022/08/03 07:51:05;;;;;;;5.78;5.25;;;;;;;29.75;39.13;100085.06;4413171;32;34527;-86
2022/08/03 07:53:41;;;;;;;6.15;5.28;;;;;;;29.83;40.19;100087.72;4420567;32;32132;-86
2022/08/03 07:56:18;;;;;;;6.28;5.25;;;;;;;29.44;39.43;100096.00;4409895;32;31900;-86
2022/08/03 07:58:50;;;;;;;7.35;5.03;;;;;;;29.37;39.56;100086.88;4422840;32;33271;-86
2022/08/03 08:01:20;;;;;;;8.32;5.40;;;;;;;29.54;39.97;100091.16;4405711;32;32491;-86
2022/08/03 08:03:59;;;;;;;9.13;5.70;;;;;;;29.31;40.25;100094.72;4406397;32;33940;-86
2022/08/03 08:06:31;;;;;;;7.82;5.30;;;;;;;29.68;39.55;100084.97;4418539;32;33360;-85
2022/08/03 08:09:04;;;;;;;5.32;4.90;;;;;;;30.04;39.15;100089.69;4420326;32;32996;-86
2022/08/03 08:14:15;;;;;;;5.32;4.82;;;;;;;30.20;37.35;100089.56;4431128;32;33774;-86
2022/08/03 08:16:43;;;;;;;6.90;5.28;;;;;;;30.27;38.91;100089.66;4410223;32;32675;-85
2022/08/03 08:19:18;;;;;;;5.18;4.68;;;;;;;30.77;37.42;100088.06;4420041;32;33026;-86
2022/08/03 08:21:57;;;;;;;5.35;4.85;;;;;;;30.72;37.44;100083.19;4429644;32;34742;-82
2022/08/03 08:24:43;;;;;;;5.68;4.60;;;;;;;30.95;35.67;100083.00;4418605;32;33999;-82
2022/08/03 08:27:12;;;;;;;;;;;;;;;31.24;37.00;100082.09;4412004;32;33634;-82
2022/08/03 08:29:45;;;;;;;4.97;4.35;;;;;;;31.16;37.01;100082.22;4423825;32;33354;-82
2022/08/03 08:32:22;;;;;;;7.97;5.07;;;;;;;31.03;35.99;100079.31;4416839;32;33673;-82
2022/08/03 08:34:52;;;;;;;5.43;4.93;;;;;;;30.86;38.33;100084.19;4436361;32;32904;-82
2022/08/03 08:37:26;;;;;;;4.85;4.45;;;;;;;30.58;38.69;100089.47;4412678;32;32653;-83
2022/08/03 08:39:55;;;;;;;5.80;4.20;;;;;;;31.24;35.86;100082.09;4424033;32;32164;-82
2022/08/03 08:42:27;;;;;;;4.80;4.10;;;;;;;31.17;35.45;100072.97;4423950;32;34099;-82
2022/08/03 08:45:14;;;;;;;10.15;4.07;;;;;;;31.41;35.57;100077.22;4412046;32;33606;-82
2022/08/03 08:47:45;;;;;;;7.90;4.75;;;;;;;31.41;35.96;100068.22;4411230;32;32022;-83
2022/08/03 08:50:20;;;;;;;6.12;4.40;;;;;;;31.73;35.25;100073.09;4417416;32;33659;-83
2022/08/03 08:53:02;;;;;;;;;;;;;;;31.81;35.13;100072.97;4408169;32;33817;-82
2022/08/03 08:55:37;;;;;;;6.15;4.28;;;;;;;31.63;35.28;100069.88;4434407;32;34095;-83
2022/08/03 08:58:33;;;;;;;4.90;4.50;;;;;;;31.87;36.69;100066.75;4423510;32;32692;-82
2022/08/03 09:01:04;;;;;;;5.00;4.50;;;;;;;32.28;34.02;100068.66;4423380;32;34650;-82
2022/08/03 09:03:36;;;;;;;5.07;4.68;;;;;;;32.22;34.05;100074.09;4423413;32;34217;-82
2022/08/03 09:06:05;;;;;;;4.95;4.50;;;;;;;32.00;33.89;100065.13;4418942;32;33506;-82
2022/08/03 09:08:33;;;;;;;4.72;4.32;;;;;;;31.84;34.54;100063.56;4408795;32;33646;-83
2022/08/03 09:11:06;;;;;;;4.25;3.85;;;;;;;31.32;34.49;100062.88;4405433;32;32802;-82
2022/08/03 09:13:42;;;;;;;5.82;4.25;;;;;;;31.82;35.83;100071.94;4416445;32;33223;-82
2022/08/03 09:16:17;;;;;;;4.37;4.05;;;;;;;32.16;33.02;100053.91;4411927;32;33684;-82
2022/08/03 09:18:52;;;;;;;4.93;4.22;;;;;;;32.26;33.55;100056.28;4435966;32;32536;-82
2022/08/03 09:21:30;;;;;;;8.35;4.75;;;;;;;32.01;33.70;100056.75;4422838;32;33215;-82
2022/08/03 09:24:03;;;;;;;5.25;3.87;;;;;;;31.65;33.29;100065.06;4422702;32;33341;-82
2022/08/03 09:26:49;;;;;;;4.20;3.80;;;;;;;31.87;35.84;100058.53;4424747;32;33607;-82
2022/08/03 09:29:21;;;;;;;5.57;3.70;;;;;;;32.32;33.50;100058.19;4417539;32;33535;-82
2022/08/03 09:32:01;;;;;;;5.15;4.45;;;;;;;32.33;36.15;100055.28;4426335;32;34310;-82
2022/08/03 09:34:34;;;;;;;4.47;3.75;;;;;;;31.80;32.37;100052.16;4411741;32;32121;-83
2022/08/03 09:37:15;;;;;;;5.93;3.92;;;;;;;32.32;32.62;100053.56;4404460;32;34259;-83
2022/08/03 09:39:46;;;;;;;4.12;3.70;;;;;;;32.80;32.95;100045.38;4406782;32;32934;-82
2022/08/03 09:42:17;;;;;;;4.10;3.78;;;;;;;32.82;33.05;100054.22;4409538;32;33763;-82
2022/08/03 09:44:56;;;;;;;6.50;4.53;;;;;;;32.75;32.11;100045.16;4423719;32;34278;-82
2022/08/03 09:47:36;;;;;;;4.00;3.65;;;;;;;33.00;30.98;100050.13;4424587;32;33510;-82
2022/08/03 09:50:12;;;;;;;4.35;3.92;;;;;;;32.78;31.46;100043.91;4423221;32;33440;-82
2022/08/03 09:52:41;;;;;;;4.55;3.40;;;;;;;32.19;31.50;100050.78;4425679;32;33656;-83
2022/08/03 09:55:23;;;;;;;5.03;3.42;;;;;;;32.05;30.77;100041.66;4413076;32;33358;-83
2022/08/03 09:58:13;;;;;;;3.83;3.53;;;;;;;32.55;30.74;100036.03;4427599;32;33704;-82
2022/08/03 10:01:07;;;;;;;4.60;4.03;;;;;;;32.35;33.18;100036.75;4418174;32;32371;-82
2022/08/03 10:03:58;;;;;;;6.70;5.25;;;;;;;32.98;31.77;100035.78;4415768;32;33889;-83
2022/08/03 10:06:39;;;;;;;4.65;4.03;;;;;;;32.88;30.92;100028.78;4425023;32;33277;-83
2022/08/03 10:09:15;;;;;;;8.65;4.53;;;;;;;32.21;33.54;100029.56;4410285;32;33191;-83
2022/08/03 10:11:45;;;;;;;11.35;3.95;;;;;;;32.63;32.57;100027.66;4423940;32;33365;-83
2022/08/03 10:14:21;;;;;;;3.83;3.35;;;;;;;32.60;31.01;100017.13;4419915;32;32521;-83
2022/08/03 10:16:50;;;;;;;4.47;3.03;;;;;;;33.03;31.78;100017.69;4421794;32;33882;-83
2022/08/03 10:19:24;;;;;;;4.68;3.37;;;;;;;32.81;32.31;100022.47;4412091;32;33958;-82
2022/08/03 10:21:57;;;;;;;4.12;3.10;;;;;;;33.05;30.76;100018.34;4437036;32;33128;-83
2022/08/03 10:24:29;;;;;;;6.28;3.62;;;;;;;33.42;29.51;100013.31;4416199;32;33204;-82
2022/08/03 10:27:07;;;;;;;4.80;3.42;;;;;;;33.32;30.33;100005.50;4418359;32;33233;-83
2022/08/03 10:29:38;;;;;;;4.12;3.30;;;;;;;33.55;28.79;100005.12;4417529;32;33249;-82
2022/08/03 10:32:47;;;;;;;3.75;3.40;;;;;;;33.48;29.38;100008.94;4408659;32;34040;-83
2022/08/03 10:35:19;;;;;;;4.20;3.85;;;;;;;32.99;29.64;100010.94;4399275;32;32652;-82
2022/08/03 10:38:03;;;;;;;4.45;4.10;;;;;;;33.19;29.76;100010.13;4422840;32;33734;-83
2022/08/03 10:40:33;;;;;;;3.90;3.60;;;;;;;32.92;30.08;100007.38;4409692;32;33971;-83
2022/08/03 10:43:43;;;;;;;4.68;3.65;;;;;;;33.15;29.48;99998.78;4415801;32;34099;-82
2022/08/03 10:46:15;;;;;;;6.80;3.65;;;;;;;33.15;31.75;99993.31;4415820;32;33969;-83
2022/08/03 10:48:52;;;;;;;3.30;3.00;;;;;;;33.10;28.85;99990.38;4409272;32;33459;-82
2022/08/03 10:51:30;;;;;;;8.23;3.33;;;;;;;33.67;29.62;99988.06;4425709;32;34198;-82
2022/08/03 10:54:03;;;;;;;3.85;3.37;;;;;;;34.19;27.89;99978.06;4410360;32;32729;-82
2022/08/03 10:59:49;;;;;;;6.55;4.03;;;;;;;33.98;27.42;99976.44;4423947;32;33369;-83
2022/08/03 11:02:19;;;;;;;5.22;3.03;;;;;;;33.59;28.70;99967.22;4415390;32;33087;-82
2022/08/03 11:05:24;;;;;;;4.90;2.75;;;;;;;33.95;28.69;99971.41;4425870;32;33401;-83
2022/08/03 11:08:26;;;;;;;3.37;3.08;;;;;;;33.96;28.72;99970.34;4424380;32;33564;-83
2022/08/03 11:11:02;;;;;;;2.83;2.60;;;;;;;34.38;28.77;99960.69;4418387;32;32946;-83
2022/08/03 11:13:33;;;;;;;3.12;2.47;;;;;;;34.73;26.65;99957.56;4424941;32;33438;-83
2022/08/03 11:16:28;;;;;;;2.15;1.95;;;;;;;34.59;24.15;99952.16;4424998;32;32977;-82
2022/08/03 11:19:03;;;;;;;3.65;2.12;;;;;;;34.86;24.02;99952.00;4425151;32;33780;-82
2022/08/03 11:21:47;;;;;;;2.20;2.00;;;;;;;35.18;23.46;99944.56;4412620;32;33152;-83
2022/08/03 11:24:38;;;;;;;2.60;2.40;;;;;;;35.32;25.40;99942.56;4426632;32;33160;-82
2022/08/03 11:27:29;;;;;;;6.97;2.75;;;;;;;35.46;25.03;99944.16;4424587;32;32930;-82
2022/08/03 11:30:31;;;;;;;3.90;2.60;;;;;;;35.11;25.90;99938.31;4407986;32;33562;-82
2022/08/03 11:33:00;;;;;;;2.80;2.47;;;;;;;34.51;24.60;99946.09;4388816;32;33926;-82
2022/08/03 11:35:57;;;;;;;3.70;3.30;;;;;;;34.55;25.96;99942.69;4424533;32;33360;-82
2022/08/03 11:38:26;;;;;;;4.75;3.30;;;;;;;34.92;25.42;99942.03;4433017;32;33271;-82
2022/08/03 11:40:56;;;;;;;4.40;4.00;;;;;;;34.55;25.21;99941.84;4423798;32;35775;-82
2022/08/03 11:43:30;;;;;;;3.92;3.10;;;;;;;34.23;25.33;99929.97;4425400;32;35763;-82
2022/08/03 11:46:06;;;;;;;3.05;2.80;;;;;;;33.86;26.03;99940.63;4438899;32;34392;-82
2022/08/03 11:48:39;;;;;;;3.05;2.85;;;;;;;33.39;26.87;99940.69;4422112;32;33411;-82
2022/08/03 11:51:28;;;;;;;3.58;3.28;;;;;;;32.99;28.78;99934.34;4415230;32;34512;-82
2022/08/03 11:54:02;;;;;;;3.17;2.97;;;;;;;33.25;29.20;99930.78;4425314;32;34799;-82
2022/08/03 11:56:48;;;;;;;3.40;3.00;;;;;;;33.19;30.53;99934.38;4437796;32;32814;-82
2022/08/03 11:59:32;;;;;;;4.87;3.10;;;;;;;33.18;30.63;99935.41;4426129;32;33464;-82
2022/08/03 12:02:10;;;;;;;3.05;2.62;;;;;;;33.36;28.96;99924.66;4425183;32;33581;-82
2022/08/03 12:04:52;;;;;;;2.95;2.75;;;;;;;33.83;27.43;99925.44;4417877;32;33894;-82
2022/08/03 12:07:29;;;;;;;3.42;3.03;;;;;;;33.76;27.49;99924.63;4436386;32;33901;-83
2022/08/03 12:10:19;;;;;;;9.10;3.30;;;;;;;33.37;28.04;99914.56;4413868;32;32168;-83
2022/08/03 12:12:57;;;;;;;3.30;2.97;;;;;;;32.87;30.62;99928.66;4437831;32;33814;-84
2022/08/03 12:15:35;;;;;;;3.78;2.60;;;;;;;33.23;29.24;99923.84;4424783;32;33592;-83
2022/08/03 12:18:15;;;;;;;3.28;2.97;;;;;;;33.01;30.46;99920.50;4421825;32;33963;-83